Time;durP1;ratioP1;P1;durP2;ratioP2;P2;SDS_P1;SDS_P2;PMS_P1;PMS_P2;Temp;Humidity;BMP_temperature;BMP_pressure;BME280_temperature;BME280_humidity;BME280_pressure;Samples;Min_cycle;Max_cycle;Signal;HPM_P1;HPM_P2
2023/09/19 00:00:48;;;;;;;18.53;11.03;;;;;;;18.81;81.41;99527.06;4195906;28;20366;-64
2023/09/19 00:03:15;;;;;;;22.63;11.37;;;;;;;18.75;81.59;99527.13;4188846;28;20558;-66
2023/09/19 00:05:46;;;;;;;24.73;11.60;;;;;;;18.75;81.79;99521.66;4187986;28;20344;-65
2023/09/19 00:08:16;;;;;;;17.73;11.13;;;;;;;18.69;81.89;99523.38;4186531;28;20233;-67
2023/09/19 00:10:43;;;;;;;19.70;11.60;;;;;;;18.59;82.82;99517.53;4185330;28;20229;-65
2023/09/19 00:13:13;;;;;;;18.87;11.37;;;;;;;18.67;82.21;99520.88;4188492;28;20233;-65
2023/09/19 00:15:49;;;;;;;19.43;11.23;;;;;;;18.79;81.46;99522.88;4190049;28;20310;-65
2023/09/19 00:18:28;;;;;;;15.90;10.37;;;;;;;18.84;81.35;99525.81;4186980;28;21093;-66
2023/09/19 00:21:01;;;;;;;22.57;11.67;;;;;;;18.77;81.37;99525.84;4189734;28;22557;-67
2023/09/19 00:23:28;;;;;;;18.70;11.00;;;;;;;18.74;81.82;99518.06;4196570;28;20247;-66
2023/09/19 00:25:58;;;;;;;17.47;10.80;;;;;;;18.64;82.12;99518.56;4189877;28;20237;-66
2023/09/19 00:28:26;;;;;;;17.67;11.43;;;;;;;18.68;81.85;99521.69;4183809;28;20304;-65
2023/09/19 00:30:54;;;;;;;21.80;10.67;;;;;;;18.72;81.67;99516.59;4184775;28;20622;-65
2023/09/19 00:33:24;;;;;;;18.30;11.37;;;;;;;18.53;82.57;99520.13;4197905;28;21143;-67
2023/09/19 00:35:52;;;;;;;18.57;11.33;;;;;;;18.53;82.52;99520.13;4185506;28;21238;-64
2023/09/19 00:38:22;;;;;;;18.10;11.47;;;;;;;18.41;83.29;99508.22;4192841;28;20236;-65
2023/09/19 00:40:53;;;;;;;18.33;10.97;;;;;;;18.43;83.18;99521.69;4194099;28;21832;-65
2023/09/19 00:43:20;;;;;;;19.47;11.00;;;;;;;18.43;83.09;99510.72;4179411;28;20254;-65
2023/09/19 00:45:51;;;;;;;20.77;11.47;;;;;;;18.25;84.36;99511.47;4187601;28;20838;-64
2023/09/19 00:48:19;;;;;;;18.73;11.47;;;;;;;18.28;84.00;99509.13;4197876;28;21883;-64
2023/09/19 00:50:47;;;;;;;18.00;11.67;;;;;;;18.40;83.65;99517.47;4190647;28;20234;-65
2023/09/19 00:53:19;;;;;;;21.50;11.77;;;;;;;18.37;83.35;99505.06;4200659;28;21735;-67
2023/09/19 00:55:48;;;;;;;20.83;11.33;;;;;;;18.44;83.31;99507.75;4192668;28;20231;-66
2023/09/19 00:58:18;;;;;;;17.37;11.40;;;;;;;18.44;82.86;99502.25;4198793;28;20245;-64
2023/09/19 01:00:46;;;;;;;20.63;12.10;;;;;;;18.19;84.28;99500.34;4195136;28;20489;-66
2023/09/19 01:03:15;;;;;;;20.47;11.43;;;;;;;18.14;84.68;99497.41;4176848;28;20234;-62
2023/09/19 01:05:43;;;;;;;17.20;11.23;;;;;;;18.17;84.47;99499.72;4185635;28;20368;-65
2023/09/19 01:08:13;;;;;;;19.93;12.50;;;;;;;18.13;84.57;99492.16;4189410;28;20236;-64
2023/09/19 01:10:51;;;;;;;17.53;11.73;;;;;;;18.19;84.53;99496.75;4189756;28;20233;-66
2023/09/19 01:13:58;;;;;;;19.77;12.10;;;;;;;18.21;84.39;99487.25;4176549;28;20243;-65
2023/09/19 01:16:52;;;;;;;20.43;12.03;;;;;;;18.29;84.10;99485.31;4205904;28;25223;-64
2023/09/19 01:19:27;;;;;;;23.33;12.27;;;;;;;18.21;84.15;99472.72;4196763;28;20715;-65
2023/09/19 01:22:21;;;;;;;19.97;11.63;;;;;;;18.09;85.19;99469.03;4187963;28;21140;-67
2023/09/19 01:25:22;;;;;;;19.50;11.17;;;;;;;18.05;85.29;99479.59;4197795;28;21119;-67
2023/09/19 01:28:00;;;;;;;17.73;12.10;;;;;;;18.05;85.25;99474.09;4195968;28;20441;-65
2023/09/19 01:30:35;;;;;;;19.50;12.07;;;;;;;18.09;84.67;99463.56;4188083;28;23737;-64
2023/09/19 01:33:03;;;;;;;19.97;12.23;;;;;;;18.15;84.73;99473.63;4187946;28;20231;-65
2023/09/19 01:35:30;;;;;;;19.03;11.80;;;;;;;18.09;84.93;99469.84;4197436;28;21405;-67
2023/09/19 01:37:57;;;;;;;18.77;12.00;;;;;;;18.15;84.50;99468.13;4187393;28;21903;-66
2023/09/19 01:40:24;;;;;;;25.63;11.60;;;;;;;18.15;84.61;99459.91;4184260;28;20237;-64
2023/09/19 01:42:59;;;;;;;19.33;12.00;;;;;;;18.05;85.35;99457.69;4185828;28;22004;-66
2023/09/19 01:45:38;;;;;;;19.57;12.23;;;;;;;18.03;85.40;99454.31;4179077;28;20235;-63
2023/09/19 01:48:25;;;;;;;18.77;11.30;;;;;;;18.11;85.08;99461.41;4193260;28;20236;-64
2023/09/19 01:50:59;;;;;;;19.67;12.50;;;;;;;18.06;85.21;99445.63;4192912;28;20274;-64
2023/09/19 01:53:41;;;;;;;22.00;11.83;;;;;;;18.07;84.85;99447.31;4195529;28;20238;-64
2023/09/19 01:56:17;;;;;;;18.40;11.90;;;;;;;18.05;85.14;99439.34;4188840;28;22155;-67
2023/09/19 01:58:48;;;;;;;18.13;11.90;;;;;;;18.03;84.98;99441.44;4178300;28;20384;-65
2023/09/19 02:01:26;;;;;;;20.70;11.83;;;;;;;17.97;85.34;99442.34;4184762;28;20278;-65
2023/09/19 02:03:53;;;;;;;19.77;11.70;;;;;;;18.06;84.80;99442.91;4197806;28;25476;-62
2023/09/19 02:06:21;;;;;;;21.27;12.53;;;;;;;18.15;84.22;99436.09;4197248;28;22688;-66
2023/09/19 02:08:49;;;;;;;22.97;11.93;;;;;;;18.20;84.00;99439.00;4201716;28;23456;-66
2023/09/19 02:11:15;;;;;;;21.57;12.37;;;;;;;18.10;84.64;99435.06;4192406;28;20599;-65
2023/09/19 02:13:43;;;;;;;19.23;12.10;;;;;;;18.02;85.12;99445.25;4198458;28;21249;-68
2023/09/19 02:16:10;;;;;;;19.17;12.83;;;;;;;18.15;84.30;99438.84;4196078;28;20250;-65
2023/09/19 02:18:39;;;;;;;21.17;12.67;;;;;;;18.09;84.45;99439.72;4205663;28;22070;-65
2023/09/19 02:21:12;;;;;;;20.17;12.33;;;;;;;18.01;84.93;99440.00;4194946;28;20248;-67
2023/09/19 02:23:38;;;;;;;20.33;12.50;;;;;;;18.00;84.86;99432.84;4191425;28;20283;-66
2023/09/19 02:26:06;;;;;;;18.40;12.13;;;;;;;17.92;85.36;99428.44;4192950;28;20330;-65
2023/09/19 02:28:33;;;;;;;22.67;12.97;;;;;;;17.89;85.43;99424.25;4201263;28;20314;-64
2023/09/19 02:31:00;;;;;;;17.83;12.20;;;;;;;17.94;85.22;99422.75;4194319;28;20751;-66
2023/09/19 02:33:32;;;;;;;20.67;13.50;;;;;;;17.71;86.66;99424.16;4196687;28;20244;-68
2023/09/19 02:36:00;;;;;;;23.47;12.77;;;;;;;17.70;86.92;99417.84;4190952;28;20259;-65
2023/09/19 02:38:27;;;;;;;21.97;12.57;;;;;;;17.89;85.57;99402.34;4183188;28;25247;-66
2023/09/19 02:40:55;;;;;;;23.80;12.60;;;;;;;17.80;85.79;99417.34;4184834;28;20242;-66
2023/09/19 02:43:22;;;;;;;20.40;12.37;;;;;;;17.76;86.30;99421.56;4188016;28;20311;-65
2023/09/19 02:45:49;;;;;;;22.40;13.30;;;;;;;17.86;85.51;99416.47;4206282;28;20285;-66
2023/09/19 02:48:18;;;;;;;18.60;11.73;;;;;;;17.77;85.80;99412.31;4202528;28;22907;-67
2023/09/19 02:50:49;;;;;;;22.40;13.33;;;;;;;17.69;86.86;99415.31;4196297;28;20244;-66
2023/09/19 02:53:16;;;;;;;20.57;12.90;;;;;;;17.78;85.96;99416.72;4193116;28;20473;-67
2023/09/19 02:55:43;;;;;;;19.03;12.60;;;;;;;17.88;85.43;99410.75;4182294;28;20227;-65
2023/09/19 02:58:14;;;;;;;18.93;12.77;;;;;;;17.72;86.06;99403.94;4190576;28;22197;-67
2023/09/19 03:00:42;;;;;;;22.97;12.90;;;;;;;17.77;86.07;99406.00;4203018;28;20502;-66
2023/09/19 03:03:09;;;;;;;24.90;12.80;;;;;;;17.64;86.95;99395.97;4198934;28;20245;-67
2023/09/19 03:05:38;;;;;;;20.10;13.20;;;;;;;17.72;86.38;99404.75;4191148;28;21411;-69
2023/09/19 03:08:05;;;;;;;23.30;13.33;;;;;;;17.53;87.29;99395.59;4203082;28;20229;-66
2023/09/19 03:10:31;;;;;;;29.93;13.43;;;;;;;17.56;87.10;99388.88;4202545;28;20231;-65
2023/09/19 03:12:59;;;;;;;23.60;12.90;;;;;;;17.51;87.23;99392.25;4196453;28;20242;-67
2023/09/19 03:15:26;;;;;;;25.00;12.83;;;;;;;17.50;87.20;99390.59;4192990;28;20235;-66
2023/09/19 03:17:53;;;;;;;19.00;12.97;;;;;;;17.63;86.61;99391.56;4198367;28;20240;-66
2023/09/19 03:20:20;;;;;;;22.60;13.33;;;;;;;17.73;86.17;99392.75;4204477;28;20415;-65
2023/09/19 03:22:48;;;;;;;26.20;13.53;;;;;;;17.62;86.65;99395.34;4194340;28;21689;-66
2023/09/19 03:25:17;;;;;;;20.43;12.40;;;;;;;17.61;86.36;99390.94;4177187;28;23365;-64
2023/09/19 03:27:43;;;;;;;25.53;12.73;;;;;;;17.61;86.65;99388.19;4195906;28;20241;-65
2023/09/19 03:30:13;;;;;;;21.67;12.20;;;;;;;17.52;86.97;99391.19;4197826;28;20463;-66
2023/09/19 03:32:49;;;;;;;24.17;13.30;;;;;;;17.53;87.12;99384.66;4196888;28;21775;-68
2023/09/19 03:35:17;;;;;;;20.57;12.53;;;;;;;17.65;86.50;99386.72;4201338;28;20245;-67
2023/09/19 03:37:44;;;;;;;23.13;13.70;;;;;;;17.58;86.45;99387.59;4195683;28;20683;-67
2023/09/19 03:40:11;;;;;;;22.17;13.37;;;;;;;17.39;87.71;99383.91;4191708;28;20502;-66
2023/09/19 03:42:40;;;;;;;24.60;13.10;;;;;;;17.46;87.42;99369.34;4192071;28;20233;-65
2023/09/19 03:45:12;;;;;;;22.57;13.07;;;;;;;17.40;87.28;99368.31;4201122;28;21139;-67
2023/09/19 03:47:40;;;;;;;20.03;12.83;;;;;;;17.36;87.95;99372.56;4198429;28;20750;-66
2023/09/19 03:50:11;;;;;;;21.10;12.80;;;;;;;17.52;87.33;99382.97;4199676;28;22813;-66
2023/09/19 03:52:38;;;;;;;18.53;12.00;;;;;;;17.58;86.67;99382.13;4193739;28;20236;-66
2023/09/19 03:55:05;;;;;;;23.20;13.10;;;;;;;17.56;86.87;99375.19;4196064;28;20235;-65
2023/09/19 03:57:31;;;;;;;21.83;13.53;;;;;;;17.63;86.63;99376.00;4191832;28;20239;-66
2023/09/19 03:59:58;;;;;;;21.93;13.23;;;;;;;17.66;86.54;99375.53;4198838;28;20237;-66
2023/09/19 04:02:25;;;;;;;22.87;12.37;;;;;;;17.58;86.27;99365.69;4190899;28;20334;-65
2023/09/19 04:04:52;;;;;;;21.90;13.47;;;;;;;17.55;86.62;99365.31;4198931;28;20244;-66
2023/09/19 04:07:22;;;;;;;26.77;13.63;;;;;;;17.56;86.85;99367.81;4204736;28;20244;-68
2023/09/19 04:09:49;;;;;;;25.50;13.30;;;;;;;17.50;86.98;99346.81;4203348;28;20235;-66
2023/09/19 04:12:16;;;;;;;18.07;12.30;;;;;;;17.54;87.06;99360.88;4197813;28;20608;-67
2023/09/19 04:14:43;;;;;;;21.73;13.23;;;;;;;17.66;86.27;99356.38;4185469;28;20389;-65
2023/09/19 04:17:10;;;;;;;19.60;12.17;;;;;;;17.65;86.17;99351.13;4200402;28;22240;-66
2023/09/19 04:19:37;;;;;;;22.33;12.70;;;;;;;17.60;86.29;99350.97;4200475;28;22870;-67
2023/09/19 04:22:04;;;;;;;19.33;12.87;;;;;;;17.49;87.08;99353.34;4192877;28;20230;-66
2023/09/19 04:24:32;;;;;;;22.57;13.13;;;;;;;17.52;87.10;99354.78;4191991;28;20252;-66
2023/09/19 04:27:01;;;;;;;21.37;13.10;;;;;;;17.48;87.18;99342.63;4195266;28;20282;-65
2023/09/19 04:29:29;;;;;;;21.83;12.93;;;;;;;17.64;86.09;99346.72;4191042;28;20232;-67
2023/09/19 04:31:59;;;;;;;23.00;13.07;;;;;;;17.63;86.47;99342.28;4187459;28;20595;-66
2023/09/19 04:34:27;;;;;;;22.97;12.27;;;;;;;17.75;85.73;99340.50;4199184;28;20228;-66
2023/09/19 04:36:56;;;;;;;20.60;12.07;;;;;;;17.58;86.45;99337.47;4196156;28;20740;-65
2023/09/19 04:39:25;;;;;;;26.93;13.50;;;;;;;17.48;87.22;99337.13;4213874;28;20242;-69
2023/09/19 04:41:52;;;;;;;24.60;13.90;;;;;;;17.47;87.12;99335.47;4201075;28;20275;-66
2023/09/19 04:44:19;;;;;;;20.40;12.70;;;;;;;17.49;87.37;99341.53;4179497;28;20243;-66
2023/09/19 04:46:46;;;;;;;24.93;12.10;;;;;;;17.63;86.45;99328.59;4194205;28;22590;-68
2023/09/19 04:49:13;;;;;;;21.03;12.73;;;;;;;17.64;86.40;99335.75;4201252;28;20646;-67
2023/09/19 04:51:40;;;;;;;21.87;12.20;;;;;;;17.58;86.55;99337.47;4189240;28;21087;-65
2023/09/19 04:54:07;;;;;;;21.53;12.70;;;;;;;17.52;86.95;99335.63;4199134;28;20299;-65
2023/09/19 04:56:34;;;;;;;23.83;12.63;;;;;;;17.70;86.08;99337.63;4201515;28;22878;-65
2023/09/19 04:59:00;;;;;;;21.60;12.10;;;;;;;17.72;86.06;99338.25;4209528;28;22895;-66
2023/09/19 05:01:27;;;;;;;22.73;13.33;;;;;;;17.73;85.94;99338.00;4202970;28;21148;-67
2023/09/19 05:03:54;;;;;;;20.80;12.33;;;;;;;17.86;85.48;99330.78;4204584;28;20253;-66
2023/09/19 05:06:21;;;;;;;23.13;12.47;;;;;;;17.81;85.38;99339.66;4190649;28;20294;-66
2023/09/19 05:08:52;;;;;;;21.27;12.70;;;;;;;17.93;85.21;99337.03;4191682;28;20233;-66
2023/09/19 05:11:21;;;;;;;21.97;12.37;;;;;;;18.10;84.17;99336.47;4204860;28;20300;-64
2023/09/19 05:13:52;;;;;;;23.13;12.23;;;;;;;18.11;83.85;99336.28;4199071;28;20761;-66
2023/09/19 05:16:19;;;;;;;19.80;12.20;;;;;;;18.11;83.79;99332.69;4205142;28;20407;-66
2023/09/19 05:18:46;;;;;;;20.43;12.70;;;;;;;18.04;83.81;99330.84;4203787;28;20313;-66
2023/09/19 05:21:13;;;;;;;19.00;12.63;;;;;;;18.10;83.79;99333.75;4196550;28;21762;-70
2023/09/19 05:23:40;;;;;;;19.13;12.37;;;;;;;17.99;84.28;99333.44;4187458;28;20317;-71
2023/09/19 05:26:08;;;;;;;23.37;13.37;;;;;;;18.03;84.22;99331.91;4183060;28;21529;-73
2023/09/19 05:28:34;;;;;;;25.73;12.90;;;;;;;18.07;83.93;99317.78;4187136;28;21135;-73
2023/09/19 05:31:04;;;;;;;25.07;12.73;;;;;;;18.16;83.70;99330.13;4173971;28;20236;-71
2023/09/19 05:33:31;;;;;;;23.20;12.30;;;;;;;18.18;83.44;99330.72;4195684;28;20238;-72
2023/09/19 05:35:58;;;;;;;19.57;11.50;;;;;;;18.14;83.37;99327.59;4168842;28;21156;-78
2023/09/19 05:38:26;;;;;;;23.63;12.77;;;;;;;18.16;83.45;99328.22;4192706;28;20391;-72
2023/09/19 05:40:53;;;;;;;22.60;12.80;;;;;;;18.24;82.95;99331.72;4203698;28;20852;-73
2023/09/19 05:43:20;;;;;;;26.97;12.60;;;;;;;18.38;82.25;99333.28;4184412;28;20237;-73
2023/09/19 05:45:47;;;;;;;26.30;11.77;;;;;;;18.43;82.08;99333.44;4193187;28;20229;-74
2023/09/19 05:48:16;;;;;;;31.13;13.23;;;;;;;18.45;81.50;99327.75;4190686;28;20794;-74
2023/09/19 05:50:46;;;;;;;21.33;10.60;;;;;;;18.45;81.67;99322.25;4181686;28;20315;-73
2023/09/19 05:53:14;;;;;;;23.30;11.17;;;;;;;18.43;82.14;99338.91;4176610;28;20399;-74
2023/09/19 05:55:42;;;;;;;16.40;11.23;;;;;;;18.74;80.58;99325.31;4177281;28;21251;-73
2023/09/19 05:58:10;;;;;;;26.73;11.53;;;;;;;18.99;79.63;99347.19;4190801;28;23391;-71
2023/09/19 06:00:36;;;;;;;22.60;10.97;;;;;;;19.02;79.30;99352.25;4180157;28;20554;-73
2023/09/19 06:03:05;;;;;;;26.63;11.37;;;;;;;19.08;79.31;99348.56;4187674;28;20284;-73
2023/09/19 06:05:32;;;;;;;21.33;11.07;;;;;;;19.13;78.90;99359.69;4188776;28;20743;-72
2023/09/19 06:08:07;;;;;;;23.70;11.17;;;;;;;19.33;77.79;99350.38;4169685;28;24287;-73
2023/09/19 06:10:35;;;;;;;26.03;11.90;;;;;;;19.22;78.38;99359.38;4183760;28;20338;-71
2023/09/19 06:13:05;;;;;;;27.03;12.53;;;;;;;19.09;79.72;99344.75;4188002;28;20241;-72
2023/09/19 06:15:33;;;;;;;20.77;11.80;;;;;;;19.38;78.11;99349.66;4169262;28;22271;-72
2023/09/19 06:18:02;;;;;;;21.53;11.73;;;;;;;19.37;77.53;99359.81;4185916;28;22870;-72
2023/09/19 06:20:29;;;;;;;21.57;11.73;;;;;;;19.41;77.23;99352.75;4180908;28;20838;-73
2023/09/19 06:22:56;;;;;;;23.47;11.97;;;;;;;19.37;77.16;99357.06;4174743;28;20251;-73
2023/09/19 06:25:23;;;;;;;21.57;11.53;;;;;;;19.56;77.19;99357.84;4192931;28;20280;-72
2023/09/19 06:27:55;;;;;;;26.23;11.63;;;;;;;19.58;77.08;99358.47;4189157;28;22085;-74
2023/09/19 06:30:24;;;;;;;24.50;12.17;;;;;;;19.73;76.21;99358.00;4189460;28;20308;-74
2023/09/19 06:32:58;;;;;;;25.23;12.40;;;;;;;19.97;75.02;99355.34;4196235;28;20240;-46
2023/09/19 06:35:26;;;;;;;27.13;10.60;;;;;;;20.04;74.90;99361.56;4183873;28;21159;-49
2023/09/19 06:37:53;;;;;;;17.53;10.90;;;;;;;;;;4190621;28;20233;-76
2023/09/19 06:40:19;;;;;;;22.23;11.43;;;;;;;20.34;73.57;99360.66;4202577;28;21692;-73
2023/09/19 06:42:50;;;;;;;27.13;11.00;;;;;;;20.66;72.52;99356.69;4192533;28;20837;-78
2023/09/19 06:45:21;;;;;;;19.13;10.90;;;;;;;20.93;70.88;99358.97;4178446;28;21185;-64
2023/09/19 06:47:49;;;;;;;19.00;10.90;;;;;;;21.15;69.82;99362.75;4184340;28;20273;-65
2023/09/19 06:50:19;;;;;;;20.90;10.37;;;;;;;21.25;70.13;99366.78;4185133;28;20237;-66
2023/09/19 06:52:49;;;;;;;24.13;10.60;;;;;;;21.52;68.13;99365.13;4196679;28;22044;-66
2023/09/19 06:55:19;;;;;;;19.43;10.70;;;;;;;21.37;68.23;99371.16;4185433;28;20294;-66
2023/09/19 06:57:47;;;;;;;22.80;10.77;;;;;;;20.72;70.78;99366.75;4195089;28;20305;-65
2023/09/19 07:00:21;;;;;;;19.70;10.60;;;;;;;20.76;71.06;99370.72;4190251;28;20227;-66
2023/09/19 07:02:55;;;;;;;19.47;10.10;;;;;;;20.98;69.08;99370.06;4189139;28;20238;-74
2023/09/19 07:05:22;;;;;;;31.27;11.03;;;;;;;21.03;69.42;99376.53;4183807;28;20835;-73
2023/09/19 07:07:48;;;;;;;17.67;10.27;;;;;;;21.12;69.83;99374.22;4199456;28;22262;-71
2023/09/19 07:10:15;;;;;;;15.83;10.83;;;;;;;21.26;68.71;99366.53;4189925;28;20235;-72
2023/09/19 07:12:43;;;;;;;17.07;10.60;;;;;;;21.31;68.43;99379.56;4186732;28;20235;-71
2023/09/19 07:15:09;;;;;;;21.40;11.80;;;;;;;21.33;69.48;99377.41;4194227;28;20309;-72
2023/09/19 07:17:36;;;;;;;19.87;11.40;;;;;;;21.02;70.22;99385.03;4206811;28;20961;-71
2023/09/19 07:20:07;;;;;;;18.53;11.50;;;;;;;21.14;70.64;99383.09;4188227;28;21769;-72
2023/09/19 07:22:35;;;;;;;19.50;11.97;;;;;;;21.12;69.78;99389.91;4183808;28;20246;-71
2023/09/19 07:25:02;;;;;;;20.60;11.37;;;;;;;21.75;68.00;99393.66;4195953;28;20251;-73
2023/09/19 07:27:28;;;;;;;23.93;12.03;;;;;;;21.72;67.83;99394.16;4196986;28;21145;-70
2023/09/19 07:29:55;;;;;;;21.57;11.70;;;;;;;21.67;67.49;99391.31;4203986;28;21760;-71
2023/09/19 07:32:21;;;;;;;21.53;11.77;;;;;;;22.11;66.60;99386.03;4178658;28;21795;-65
2023/09/19 07:34:48;;;;;;;21.33;12.17;;;;;;;22.12;65.96;99395.16;4171127;28;20319;-67
2023/09/19 07:37:16;;;;;;;19.33;12.20;;;;;;;22.08;66.70;99393.97;4179768;28;21982;-66
2023/09/19 07:39:44;;;;;;;20.87;12.43;;;;;;;22.05;66.65;99405.50;4191504;28;20477;-66
2023/09/19 07:42:17;;;;;;;20.77;13.50;;;;;;;21.74;66.97;99407.69;4184724;28;21870;-66
2023/09/19 07:44:47;;;;;;;25.37;13.07;;;;;;;21.24;69.12;99411.91;4193471;28;20384;-67
2023/09/19 07:47:14;;;;;;;28.83;13.50;;;;;;;21.07;69.77;99414.59;4189736;28;20240;-65
2023/09/19 07:49:42;;;;;;;27.77;13.93;;;;;;;21.16;69.99;99424.09;4196861;28;20544;-65
2023/09/19 07:52:10;;;;;;;23.50;12.90;;;;;;;20.94;71.03;99430.25;4172122;28;20245;-65
2023/09/19 07:54:38;;;;;;;20.63;13.13;;;;;;;20.91;70.97;99428.00;4183910;28;20248;-68
2023/09/19 07:57:05;;;;;;;21.20;13.23;;;;;;;20.78;71.70;99415.31;4178896;28;20313;-68
2023/09/19 07:59:31;;;;;;;21.30;13.53;;;;;;;20.77;72.48;99421.06;4182390;28;21106;-67
2023/09/19 08:01:58;;;;;;;22.73;13.37;;;;;;;21.05;71.01;99407.41;4185235;28;20245;-68
2023/09/19 08:04:25;;;;;;;21.00;12.57;;;;;;;21.45;69.63;99416.75;4180991;28;20235;-66
2023/09/19 08:06:52;;;;;;;26.50;12.53;;;;;;;21.08;71.09;99418.97;4179118;28;25812;-66
2023/09/19 08:09:20;;;;;;;24.70;12.53;;;;;;;21.51;70.10;99428.72;4186944;28;20558;-67
2023/09/19 08:11:51;;;;;;;19.57;12.77;;;;;;;21.29;70.21;99423.88;4187970;28;21042;-67
2023/09/19 08:14:18;;;;;;;20.50;11.60;;;;;;;21.16;71.24;99430.47;4196291;28;20687;-69
2023/09/19 08:16:44;;;;;;;17.13;12.10;;;;;;;21.02;71.57;99446.38;4190996;28;20540;-67
2023/09/19 08:19:11;;;;;;;18.00;11.90;;;;;;;20.65;73.00;99443.88;4198709;28;20247;-75
2023/09/19 08:21:38;;;;;;;20.00;11.27;;;;;;;21.13;71.38;99452.13;4196360;28;21077;-69
2023/09/19 08:24:05;;;;;;;17.67;10.57;;;;;;;20.93;72.51;99456.09;4175766;28;20238;-71
2023/09/19 08:26:32;;;;;;;18.63;10.77;;;;;;;21.29;71.20;99454.16;4192618;28;20256;-72
2023/09/19 08:29:04;;;;;;;14.87;10.47;;;;;;;21.49;70.59;99456.47;4205804;28;21096;-71
2023/09/19 08:31:33;;;;;;;17.20;10.47;;;;;;;21.31;71.13;99456.66;4199776;28;20306;-69
2023/09/19 08:34:00;;;;;;;19.67;10.27;;;;;;;21.38;71.00;99460.09;4205272;28;20364;-72
2023/09/19 08:36:27;;;;;;;18.50;10.87;;;;;;;21.02;72.58;99462.06;4214170;28;20236;-71
2023/09/19 08:38:53;;;;;;;17.97;10.43;;;;;;;20.87;72.65;99463.41;4189221;28;22146;-69
2023/09/19 08:41:20;;;;;;;18.63;11.23;;;;;;;21.04;72.24;99449.75;4192468;28;20442;-67
2023/09/19 08:43:47;;;;;;;18.57;11.30;;;;;;;20.80;73.22;99450.81;4183487;28;20577;-71
2023/09/19 08:46:15;;;;;;;21.57;11.47;;;;;;;20.42;75.29;99451.00;4189009;28;20416;-69
2023/09/19 08:49:05;;;;;;;20.20;12.47;;;;;;;20.32;75.66;99444.41;4214004;28;22482;-69
2023/09/19 08:51:45;;;;;;;19.97;12.40;;;;;;;20.13;77.27;99440.91;4191595;28;20253;-70
2023/09/19 08:54:26;;;;;;;16.93;11.33;;;;;;;20.26;76.78;99448.94;4176346;28;20516;-69
2023/09/19 08:56:54;;;;;;;18.20;11.03;;;;;;;20.47;76.50;99449.47;4195291;28;20280;-69
2023/09/19 08:59:25;;;;;;;18.90;10.50;;;;;;;20.69;74.61;99445.06;4196526;28;20242;-69
2023/09/19 09:01:53;;;;;;;18.20;11.27;;;;;;;20.32;76.60;99449.91;4219130;28;20268;-70
2023/09/19 09:04:22;;;;;;;19.97;11.40;;;;;;;20.40;76.16;99444.91;4199647;28;20237;-69
2023/09/19 09:06:53;;;;;;;20.97;11.53;;;;;;;20.51;76.34;99440.50;4187292;28;20592;-71
2023/09/19 09:09:20;;;;;;;15.27;11.40;;;;;;;20.46;75.72;99445.88;4184619;28;20635;-71
2023/09/19 09:11:51;;;;;;;16.93;11.50;;;;;;;19.85;79.21;99459.69;4174607;28;20659;-67
2023/09/19 09:14:19;;;;;;;21.43;11.63;;;;;;;19.64;81.53;99458.25;4183373;28;20240;-64
2023/09/19 09:16:47;;;;;;;17.30;10.93;;;;;;;19.94;81.03;99457.44;4179063;28;20320;-64
2023/09/19 09:19:20;;;;;;;18.23;11.33;;;;;;;19.92;81.25;99473.34;4190947;28;20233;-64
2023/09/19 09:21:47;;;;;;;22.07;11.50;;;;;;;19.42;84.76;99483.44;4191672;28;20327;-61
2023/09/19 09:25:03;;;;;;;22.87;12.37;;;;;;;19.35;85.92;99501.88;4181240;28;22479;-64
2023/09/19 09:27:34;;;;;;;34.53;14.77;;;;;;;18.80;91.45;99510.84;4178117;28;20535;-73
2023/09/19 09:30:00;;;;;;;35.53;15.37;;;;;;;18.65;93.30;99495.56;4195479;28;20233;-73
2023/09/19 09:32:29;;;;;;;29.43;15.47;;;;;;;18.69;93.94;99490.47;4185867;28;21544;-71
2023/09/19 09:34:57;;;;;;;29.20;14.23;;;;;;;18.45;95.34;99489.41;4187390;28;20556;-69
2023/09/19 09:37:30;;;;;;;26.53;13.93;;;;;;;18.28;96.92;99492.69;4193585;28;21456;-68
2023/09/19 09:40:18;;;;;;;25.87;15.60;;;;;;;18.21;98.18;99502.84;4185064;28;20281;-71
2023/09/19 09:42:46;;;;;;;28.97;15.03;;;;;;;17.81;100.00;99511.25;4187814;28;20233;-69
2023/09/19 09:48:03;;;;;;;27.33;15.97;;;;;;;17.82;100.00;99521.16;4182774;28;20598;-72
2023/09/19 09:50:48;;;;;;;23.77;15.73;;;;;;;17.69;100.00;99522.91;4181182;28;20305;-72
2023/09/19 09:53:32;;;;;;;30.30;17.53;;;;;;;17.73;100.00;99521.41;4186385;28;20394;-68
2023/09/19 09:56:06;;;;;;;30.33;16.37;;;;;;;17.84;100.00;99524.53;4182713;28;20666;-68
2023/09/19 09:58:37;;;;;;;30.50;16.53;;;;;;;17.78;100.00;99528.97;4182625;28;20228;-68
2023/09/19 10:01:14;;;;;;;24.47;15.23;;;;;;;17.93;100.00;99522.38;4177689;28;22337;-70
2023/09/19 10:03:48;;;;;;;26.07;15.40;;;;;;;17.83;100.00;99522.84;4182465;28;21836;-71
2023/09/19 10:06:26;;;;;;;26.53;15.53;;;;;;;17.94;100.00;99522.13;4187637;28;20287;-68
2023/09/19 10:09:06;;;;;;;25.07;14.33;;;;;;;17.88;100.00;99515.66;4180871;28;23528;-74
2023/09/19 10:11:37;;;;;;;26.10;15.03;;;;;;;17.96;100.00;99517.31;4184831;28;20300;-68
2023/09/19 10:14:06;;;;;;;24.60;13.37;;;;;;;17.97;100.00;99519.00;4184943;28;26229;-69
2023/09/19 10:16:35;;;;;;;24.97;13.53;;;;;;;18.12;100.00;99521.47;4194127;28;21120;-72
2023/09/19 10:19:07;;;;;;;22.23;13.43;;;;;;;18.16;100.00;99530.09;4191741;28;20665;-72
2023/09/19 10:21:36;;;;;;;20.03;12.23;;;;;;;18.11;100.00;99536.22;4187455;28;20705;-72
2023/09/19 10:24:07;;;;;;;19.03;11.10;;;;;;;18.08;100.00;99531.16;4184914;28;20831;-72
2023/09/19 10:26:36;;;;;;;20.17;11.93;;;;;;;18.10;100.00;99539.16;4199264;28;20411;-74
2023/09/19 10:29:07;;;;;;;22.00;11.77;;;;;;;18.10;100.00;99533.66;4185068;28;20817;-74
2023/09/19 10:31:40;;;;;;;19.93;11.63;;;;;;;18.20;100.00;99525.84;4192164;28;20393;-73
2023/09/19 10:34:09;;;;;;;23.07;11.27;;;;;;;18.46;100.00;99527.56;4204220;28;20234;-69
2023/09/19 10:36:37;;;;;;;23.87;12.90;;;;;;;18.71;100.00;99525.88;4191116;28;20566;-70
2023/09/19 10:39:06;;;;;;;26.23;13.30;;;;;;;18.92;100.00;99527.44;4191191;28;20465;-67
2023/09/19 10:41:34;;;;;;;16.37;8.87;;;;;;;18.85;100.00;99532.94;4193400;28;20237;-71
2023/09/19 10:44:05;;;;;;;20.27;8.20;;;;;;;18.65;100.00;99533.13;4197984;28;20251;-71
2023/09/19 10:46:32;;;;;;;16.13;9.07;;;;;;;18.51;100.00;99532.38;4202014;28;20337;-68
2023/09/19 10:49:02;;;;;;;18.30;9.00;;;;;;;18.68;100.00;99533.50;4192436;28;22113;-68
2023/09/19 10:51:41;;;;;;;18.17;8.67;;;;;;;18.82;100.00;99533.41;4214593;28;20717;-70
2023/09/19 10:54:15;;;;;;;12.87;7.97;;;;;;;18.56;100.00;99532.53;4209017;28;21655;-70
2023/09/19 10:56:48;;;;;;;14.30;8.33;;;;;;;18.48;100.00;99535.53;4174869;28;21118;-69
2023/09/19 10:59:18;;;;;;;13.67;7.20;;;;;;;18.66;100.00;99543.00;4186440;28;20233;-69
2023/09/19 11:01:58;;;;;;;12.00;7.57;;;;;;;18.54;100.00;99545.66;4203547;28;20624;-70
2023/09/19 11:04:38;;;;;;;13.03;7.07;;;;;;;18.52;100.00;99551.31;4184017;28;20242;-69
2023/09/19 11:07:11;;;;;;;14.13;8.40;;;;;;;18.66;100.00;99545.75;4197123;28;20771;-70
2023/09/19 11:09:53;;;;;;;14.63;9.70;;;;;;;18.71;100.00;99545.06;4192240;28;20237;-71
2023/09/19 11:12:30;;;;;;;15.33;9.40;;;;;;;18.67;100.00;99539.19;4210717;28;20918;-70
2023/09/19 11:14:58;;;;;;;15.60;8.57;;;;;;;18.66;100.00;99545.75;4198361;28;20243;-69
2023/09/19 11:17:41;;;;;;;15.27;9.60;;;;;;;18.93;100.00;99551.88;4182298;28;20302;-68
2023/09/19 11:22:48;;;;;;;14.83;9.00;;;;;;;18.79;100.00;99544.81;4206748;28;20613;-68
2023/09/19 11:25:30;;;;;;;12.43;8.27;;;;;;;18.94;98.94;99542.59;4193314;28;20431;-69
2023/09/19 11:28:25;;;;;;;14.57;8.67;;;;;;;18.90;99.42;99546.84;4189912;28;20263;-68
2023/09/19 11:30:56;;;;;;;13.23;8.23;;;;;;;18.80;98.01;99532.78;4181708;28;22128;-66
2023/09/19 11:36:19;;;;;;;14.57;9.03;;;;;;;19.08;97.65;99546.06;4179619;28;20244;-67
2023/09/19 11:38:49;;;;;;;18.10;9.30;;;;;;;19.17;97.85;99554.84;4199954;28;20634;-68